createdAt,value
2022-11-28T00:01:23.975Z,9.15
2022-11-28T00:03:50.900Z,8.45
2022-11-28T00:06:18.428Z,9.27
2022-11-28T00:08:45.699Z,9.15
2022-11-28T00:11:14.941Z,8.50
2022-11-28T00:13:42.658Z,8.50
2022-11-28T00:16:13.630Z,9.07
2022-11-28T00:18:40.472Z,8.88
2022-11-28T00:21:09.828Z,8.57
2022-11-28T00:23:36.715Z,9.18
2022-11-28T00:26:09.617Z,8.68
2022-11-28T00:28:37.473Z,8.70
2022-11-28T00:31:04.493Z,9.57
2022-11-28T00:33:34.591Z,8.48
2022-11-28T00:36:03.126Z,8.48
2022-11-28T00:38:30.581Z,8.57
2022-11-28T00:41:01.820Z,7.88
2022-11-28T00:43:29.059Z,8.38
2022-11-28T00:45:56.370Z,8.65
2022-11-28T00:48:23.854Z,8.43
2022-11-28T00:50:51.297Z,8.52
2022-11-28T00:53:18.210Z,8.50
2022-11-28T00:55:45.080Z,9.85
2022-11-28T00:58:11.893Z,8.35
2022-11-28T01:00:39.279Z,8.63
2022-11-28T01:03:06.140Z,8.55
2022-11-28T01:05:32.960Z,7.65
2022-11-28T01:07:59.835Z,8.63
2022-11-28T01:10:27.183Z,9.30
2022-11-28T01:12:54.199Z,8.63
2022-11-28T01:15:21.147Z,9.20
2022-11-28T01:17:47.989Z,9.05
2022-11-28T01:20:14.945Z,9.30
2022-11-28T01:22:41.889Z,8.10
2022-11-28T01:25:08.737Z,9.27
2022-11-28T01:27:35.544Z,9.27
2022-11-28T01:30:02.358Z,8.70
2022-11-28T01:32:29.195Z,9.15
2022-11-28T01:34:56.113Z,10.23
2022-11-28T01:37:22.973Z,8.48
2022-11-28T01:39:49.768Z,9.40
2022-11-28T01:42:20.229Z,9.07
2022-11-28T01:44:50.043Z,10.15
2022-11-28T01:47:25.765Z,9.38
2022-11-28T01:49:53.944Z,9.40
2022-11-28T01:52:22.053Z,9.57
2022-11-28T01:54:53.335Z,9.80
2022-11-28T01:57:24.191Z,9.65
2022-11-28T02:00:01.907Z,9.40
2022-11-28T02:02:41.624Z,9.60
2022-11-28T02:05:08.932Z,8.90
2022-11-28T02:07:36.881Z,9.38
2022-11-28T02:10:07.904Z,9.50
2022-11-28T02:12:59.874Z,9.18
2022-11-28T02:15:55.849Z,8.50
2022-11-28T02:18:55.108Z,9.18
2022-11-28T02:21:30.189Z,8.85
2022-11-28T02:24:26.870Z,9.02
2022-11-28T02:27:12.392Z,9.38
2022-11-28T02:29:40.104Z,9.23
2022-11-28T02:32:43.102Z,9.50
2022-11-28T02:35:21.558Z,8.90
2022-11-28T02:37:58.278Z,9.40
2022-11-28T02:40:37.546Z,9.55
2022-11-28T02:47:31.430Z,11.35
2022-11-28T02:50:05.077Z,9.68
2022-11-28T02:52:39.584Z,9.77
2022-11-28T02:55:07.794Z,8.38
2022-11-28T02:57:41.627Z,9.77
2022-11-28T03:00:32.119Z,9.50
2022-11-28T03:03:17.868Z,10.02
2022-11-28T03:06:23.041Z,10.23
2022-11-28T03:08:58.719Z,10.20
2022-11-28T03:11:42.531Z,10.30
2022-11-28T03:14:30.872Z,10.35
2022-11-28T03:17:18.991Z,10.48
2022-11-28T03:19:59.395Z,10.18
2022-11-28T03:22:31.865Z,9.90
2022-11-28T03:25:50.170Z,9.60
2022-11-28T03:28:26.916Z,11.18
2022-11-28T03:31:09.372Z,10.52
2022-11-28T03:33:44.539Z,11.00
2022-11-28T03:36:20.890Z,10.75
2022-11-28T03:39:00.485Z,11.23
2022-11-28T03:41:50.126Z,10.95
2022-11-28T03:44:23.324Z,11.52
2022-11-28T03:46:51.863Z,10.80
2022-11-28T03:49:26.005Z,11.63
2022-11-28T03:52:00.808Z,10.80
2022-11-28T03:54:50.748Z,11.90
2022-11-28T03:57:45.985Z,11.85
2022-11-28T04:00:13.995Z,11.15
2022-11-28T04:03:02.698Z,11.88
2022-11-28T04:05:45.483Z,12.00
2022-11-28T04:08:25.944Z,11.02
2022-11-28T04:11:12.858Z,12.27
2022-11-28T04:13:54.760Z,12.07
2022-11-28T04:16:42.701Z,13.15
2022-11-28T04:19:38.518Z,12.05
2022-11-28T04:22:37.663Z,12.07
2022-11-28T04:25:10.661Z,11.85
2022-11-28T04:27:46.532Z,12.32
2022-11-28T04:30:14.926Z,13.32
2022-11-28T04:32:48.073Z,12.52
2022-11-28T04:35:27.036Z,13.00
2022-11-28T04:37:55.262Z,12.85
2022-11-28T04:40:24.811Z,13.45
2022-11-28T04:43:00.373Z,13.63
2022-11-28T04:45:32.261Z,13.82
2022-11-28T04:47:59.710Z,14.40
2022-11-28T04:50:35.022Z,14.80
2022-11-28T04:53:28.548Z,14.57
2022-11-28T04:56:01.651Z,14.98
2022-11-28T04:58:36.301Z,14.02
2022-11-28T05:01:06.378Z,14.45
2022-11-28T05:03:33.703Z,16.13
2022-11-28T05:06:01.966Z,15.80
2022-11-28T05:08:28.942Z,15.02
2022-11-28T05:10:55.731Z,15.57
2022-11-28T05:13:22.695Z,15.80
2022-11-28T05:15:49.776Z,16.13
2022-11-28T05:18:16.578Z,16.50
2022-11-28T05:20:43.843Z,16.45
2022-11-28T05:23:11.142Z,15.57
2022-11-28T05:25:41.482Z,15.50
2022-11-28T05:28:09.216Z,16.20
2022-11-28T05:30:36.034Z,17.48
2022-11-28T05:33:03.696Z,18.10
2022-11-28T05:35:30.521Z,18.23
2022-11-28T05:37:57.361Z,19.52
2022-11-28T05:40:24.231Z,18.38
2022-11-28T05:42:51.091Z,17.02
2022-11-28T05:45:17.940Z,17.52
2022-11-28T05:47:44.971Z,17.90
2022-11-28T05:50:11.925Z,18.85
2022-11-28T05:52:38.851Z,18.33
2022-11-28T05:55:06.267Z,18.38
2022-11-28T05:57:33.586Z,17.80
2022-11-28T06:00:00.609Z,17.50
2022-11-28T06:02:27.483Z,17.13
2022-11-28T06:04:54.680Z,18.02
2022-11-28T06:07:21.589Z,18.15
2022-11-28T06:09:48.578Z,18.13
2022-11-28T06:12:15.465Z,17.00
2022-11-28T06:14:42.253Z,17.90
2022-11-28T06:17:09.136Z,18.13
2022-11-28T06:19:36.216Z,16.90
2022-11-28T06:22:03.655Z,18.40
2022-11-28T06:24:30.450Z,18.25
2022-11-28T06:26:57.264Z,16.75
2022-11-28T06:29:24.064Z,18.85
2022-11-28T06:31:51.012Z,18.70
2022-11-28T06:34:17.855Z,20.35
2022-11-28T06:36:45.270Z,19.13
2022-11-28T06:39:16.450Z,18.63
2022-11-28T06:41:43.925Z,18.15
2022-11-28T06:44:14.636Z,18.13
2022-11-28T06:46:42.326Z,18.83
2022-11-28T06:49:12.990Z,18.33
2022-11-28T06:51:41.479Z,18.75
2022-11-28T06:54:08.824Z,17.95
2022-11-28T06:56:35.747Z,17.27
2022-11-28T06:59:02.788Z,16.85
2022-11-28T07:01:31.337Z,14.98
2022-11-28T07:03:58.487Z,15.43
2022-11-28T07:06:26.420Z,16.02
2022-11-28T07:08:53.788Z,15.63
2022-11-28T07:11:29.685Z,15.88
2022-11-28T07:13:57.687Z,16.25
2022-11-28T07:16:26.923Z,17.02
2022-11-28T07:18:54.804Z,15.77
2022-11-28T07:21:24.120Z,16.13
2022-11-28T07:23:51.588Z,16.08
2022-11-28T07:26:20.176Z,16.05
2022-11-28T07:28:48.465Z,15.45
2022-11-28T07:31:20.888Z,14.77
2022-11-28T07:33:50.424Z,13.85
2022-11-28T07:36:26.180Z,15.45
2022-11-28T07:38:58.672Z,15.20
2022-11-28T07:41:27.403Z,15.23
2022-11-28T07:44:00.504Z,15.27
2022-11-28T07:46:28.721Z,14.75
2022-11-28T07:48:56.673Z,15.80
2022-11-28T07:51:26.314Z,15.32
2022-11-28T07:53:53.855Z,14.48
2022-11-28T07:56:24.897Z,15.10
2022-11-28T07:58:51.860Z,15.05
2022-11-28T08:01:28.327Z,17.25
2022-11-28T08:03:56.568Z,16.10
2022-11-28T08:06:25.671Z,17.35
2022-11-28T08:08:53.394Z,16.50
2022-11-28T08:11:22.292Z,16.55
2022-11-28T08:13:49.343Z,16.42
2022-11-28T08:16:22.037Z,14.82
2022-11-28T08:18:50.914Z,16.08
2022-11-28T08:21:20.184Z,15.10
2022-11-28T08:23:47.159Z,14.10
2022-11-28T08:26:16.519Z,13.90
2022-11-28T08:28:43.999Z,13.60
2022-11-28T08:31:16.623Z,14.88
2022-11-28T08:33:44.319Z,16.60
2022-11-28T08:36:14.427Z,14.65
2022-11-28T08:38:49.949Z,12.90
2022-11-28T08:41:30.087Z,13.00
2022-11-28T08:43:56.884Z,14.57
2022-11-28T08:46:23.797Z,14.52
2022-11-28T08:48:52.719Z,17.98
2022-11-28T08:51:22.275Z,15.18
2022-11-28T08:53:50.463Z,17.20
2022-11-28T08:56:19.890Z,14.40
2022-11-28T08:58:47.362Z,13.10
2022-11-28T09:01:25.104Z,15.60
2022-11-28T09:03:53.323Z,14.50
2022-11-28T09:06:22.276Z,12.93
2022-11-28T09:08:50.551Z,15.40
2022-11-28T09:11:19.798Z,13.10
2022-11-28T09:13:47.087Z,13.95
2022-11-28T09:16:14.643Z,13.48
2022-11-28T09:18:41.642Z,15.05
2022-11-28T09:21:10.326Z,15.15
2022-11-28T09:23:38.422Z,12.82
2022-11-28T09:26:10.146Z,14.80
2022-11-28T09:28:37.372Z,14.55
2022-11-28T09:31:06.350Z,14.60
2022-11-28T09:33:34.296Z,14.60
2022-11-28T09:36:21.866Z,15.80
2022-11-28T09:38:49.268Z,14.73
2022-11-28T09:41:22.054Z,13.82
2022-11-28T09:43:54.700Z,15.10
2022-11-28T09:46:28.976Z,14.52
2022-11-28T09:49:00.883Z,15.15
2022-11-28T09:51:42.630Z,16.08
2022-11-28T09:54:25.484Z,15.00
2022-11-28T09:56:52.576Z,14.55
2022-11-28T09:59:28.386Z,14.63
2022-11-28T10:02:26.307Z,14.70
2022-11-28T10:05:01.634Z,14.95
2022-11-28T10:07:40.789Z,13.57
2022-11-28T10:10:37.952Z,13.73
2022-11-28T10:13:41.134Z,13.38
2022-11-28T10:16:27.234Z,13.45
2022-11-28T10:19:09.914Z,14.00
2022-11-28T10:21:59.268Z,13.50
2022-11-28T10:24:50.075Z,13.38
2022-11-28T10:27:20.144Z,12.50
2022-11-28T10:29:56.819Z,12.90
2022-11-28T10:32:36.443Z,14.13
2022-11-28T10:35:25.256Z,13.18
2022-11-28T10:37:54.927Z,12.50
2022-11-28T10:40:30.751Z,12.57
2022-11-28T10:43:03.272Z,12.38
2022-11-28T10:45:30.202Z,13.20
2022-11-28T10:47:57.149Z,12.75
2022-11-28T10:51:03.891Z,11.77
2022-11-28T10:53:51.115Z,10.55
2022-11-28T10:56:35.647Z,11.38
2022-11-28T10:59:19.003Z,11.35
2022-11-28T11:01:50.148Z,11.68
2022-11-28T11:04:20.419Z,11.85
2022-11-28T11:07:13.833Z,11.27
2022-11-28T11:09:45.915Z,11.57
2022-11-28T11:12:25.569Z,12.65
2022-11-28T11:14:52.640Z,12.90
2022-11-28T11:17:37.753Z,11.75
2022-11-28T11:20:23.033Z,11.63
2022-11-28T11:22:58.573Z,11.40
2022-11-28T11:25:28.220Z,11.32
2022-11-28T11:27:57.436Z,11.77
2022-11-28T11:30:38.881Z,13.45
2022-11-28T11:33:12.374Z,13.20
2022-11-28T11:35:45.925Z,14.57
2022-11-28T11:38:17.404Z,13.13
2022-11-28T11:40:45.207Z,13.55
2022-11-28T11:43:28.193Z,12.82
2022-11-28T11:46:12.686Z,12.75
2022-11-28T11:48:42.284Z,13.57
2022-11-28T11:51:21.730Z,13.05
2022-11-28T11:53:49.006Z,12.25
2022-11-28T11:56:15.966Z,13.32
2022-11-28T11:58:48.277Z,16.98
2022-11-28T12:01:17.634Z,13.30
2022-11-28T12:03:56.300Z,12.88
2022-11-28T12:06:28.801Z,12.88
2022-11-28T12:09:27.572Z,12.63
2022-11-28T12:12:05.086Z,11.48
2022-11-28T12:14:34.146Z,10.00
2022-11-28T12:17:46.788Z,11.00
2022-11-28T12:20:26.633Z,10.52
2022-11-28T12:23:31.210Z,9.90
2022-11-28T12:26:01.050Z,11.02
2022-11-28T12:28:49.631Z,10.70
2022-11-28T12:31:42.161Z,11.52
2022-11-28T12:34:24.155Z,11.23
2022-11-28T12:37:14.882Z,11.70
2022-11-28T12:39:50.319Z,11.38
2022-11-28T12:42:41.764Z,11.02
2022-11-28T12:45:37.756Z,10.63
2022-11-28T12:48:13.415Z,12.95
2022-11-28T12:50:44.337Z,12.90
2022-11-28T12:53:52.017Z,10.63
2022-11-28T12:56:42.165Z,9.85
2022-11-28T12:59:42.269Z,10.77
2022-11-28T13:02:43.795Z,9.75
2022-11-28T13:05:23.043Z,9.02
2022-11-28T13:08:07.636Z,9.27
2022-11-28T13:10:45.871Z,9.60
2022-11-28T13:13:25.169Z,9.13
2022-11-28T13:16:27.033Z,8.55
2022-11-28T13:19:21.229Z,7.97
2022-11-28T13:21:55.752Z,8.27
2022-11-28T13:24:33.113Z,59.97
2022-11-28T13:27:12.883Z,9.02
2022-11-28T13:30:14.374Z,8.23
2022-11-28T13:33:27.477Z,9.57
2022-11-28T13:35:55.032Z,8.68
2022-11-28T13:39:11.394Z,8.77
2022-11-28T13:42:16.158Z,8.73
2022-11-28T13:44:57.793Z,9.20
2022-11-28T13:47:27.813Z,12.20
2022-11-28T13:50:25.655Z,14.50
2022-11-28T13:53:02.290Z,13.98
2022-11-28T13:55:38.360Z,14.68
2022-11-28T13:58:32.861Z,13.80
2022-11-28T14:01:08.102Z,12.43
2022-11-28T14:03:44.253Z,10.93
2022-11-28T14:06:14.696Z,10.70
2022-11-28T14:08:44.374Z,11.45
2022-11-28T14:11:46.470Z,10.70
2022-11-28T14:14:43.515Z,9.50
2022-11-28T14:17:19.917Z,9.40
2022-11-28T14:20:24.553Z,10.80
2022-11-28T14:23:12.286Z,10.35
2022-11-28T14:25:45.511Z,10.77
2022-11-28T14:28:23.845Z,13.30
2022-11-28T14:30:52.856Z,15.38
2022-11-28T14:33:42.504Z,13.82
2022-11-28T14:36:22.733Z,9.05
2022-11-28T14:39:14.876Z,9.48
2022-11-28T14:42:58.724Z,9.50
2022-11-28T14:45:33.420Z,8.73
2022-11-28T14:48:30.243Z,8.82
2022-11-28T14:51:01.744Z,8.20
2022-11-28T14:53:36.423Z,9.07
2022-11-28T14:56:16.094Z,8.45
2022-11-28T14:58:51.146Z,9.73
2022-11-28T15:01:40.800Z,9.90
2022-11-28T15:04:19.710Z,9.63
2022-11-28T15:06:50.397Z,10.30
2022-11-28T15:09:29.150Z,9.68
2022-11-28T15:12:01.587Z,9.60
2022-11-28T15:14:30.043Z,10.02
2022-11-28T15:17:10.611Z,13.00
2022-11-28T15:19:44.346Z,10.40
2022-11-28T15:22:41.130Z,10.95
2022-11-28T15:25:18.072Z,11.32
2022-11-28T15:27:45.803Z,10.75
2022-11-28T15:30:22.713Z,12.45
2022-11-28T15:32:50.394Z,12.55
2022-11-28T15:35:18.947Z,10.50
2022-11-28T15:37:55.628Z,11.20
2022-11-28T15:40:49.152Z,10.52
2022-11-28T15:43:16.508Z,11.20
2022-11-28T15:45:43.560Z,11.32
2022-11-28T15:48:39.764Z,12.32
2022-11-28T15:51:08.240Z,15.63
2022-11-28T15:53:42.214Z,14.40
2022-11-28T15:56:15.067Z,14.25
2022-11-28T15:58:51.809Z,13.82
2022-11-28T16:01:24.333Z,13.95
2022-11-28T16:04:01.130Z,12.98
2022-11-28T16:06:34.266Z,10.70
2022-11-28T16:09:05.911Z,10.50
2022-11-28T16:11:35.425Z,9.95
2022-11-28T16:14:09.283Z,10.45
2022-11-28T16:16:38.889Z,11.68
2022-11-28T16:19:23.450Z,11.55
2022-11-28T16:21:57.009Z,9.18
2022-11-28T16:24:31.207Z,8.82
2022-11-28T16:27:04.574Z,8.93
2022-11-28T16:29:34.953Z,9.07
2022-11-28T16:32:23.376Z,9.15
2022-11-28T16:34:52.093Z,8.20
2022-11-28T16:37:25.327Z,8.93
2022-11-28T16:40:01.297Z,8.50
2022-11-28T16:42:28.431Z,8.95
2022-11-28T16:44:55.288Z,9.52
2022-11-28T16:47:31.043Z,9.18
2022-11-28T16:50:16.052Z,8.73
2022-11-28T16:52:49.146Z,10.15
2022-11-28T16:55:32.276Z,11.27
2022-11-28T16:58:22.818Z,9.57
2022-11-28T17:00:59.807Z,10.57
2022-11-28T17:03:52.756Z,10.93
2022-11-28T17:06:34.163Z,10.80
2022-11-28T17:09:02.052Z,9.30
2022-11-28T17:11:32.805Z,9.00
2022-11-28T17:14:02.422Z,9.07
2022-11-28T17:16:33.319Z,8.65
2022-11-28T17:19:00.358Z,9.73
2022-11-28T17:21:33.140Z,10.10
2022-11-28T17:24:02.819Z,12.07
2022-11-28T17:26:29.708Z,10.75
2022-11-28T17:28:58.790Z,9.88
2022-11-28T17:31:25.593Z,11.00
2022-11-28T17:33:52.464Z,9.55
2022-11-28T17:36:19.269Z,10.27
2022-11-28T17:38:46.084Z,10.32
2022-11-28T17:41:14.562Z,10.75
2022-11-28T17:43:42.519Z,11.18
2022-11-28T17:46:09.888Z,9.88
2022-11-28T17:48:37.338Z,10.48
2022-11-28T17:51:04.845Z,11.48
2022-11-28T17:53:32.344Z,10.48
2022-11-28T17:55:59.897Z,11.90
2022-11-28T17:58:28.889Z,11.25
2022-11-28T18:01:00.536Z,10.98
2022-11-28T18:03:29.122Z,11.68
2022-11-28T18:05:56.001Z,12.13
2022-11-28T18:08:22.944Z,11.63
2022-11-28T18:10:51.095Z,11.05
2022-11-28T18:13:18.128Z,11.10
2022-11-28T18:15:47.562Z,11.10
2022-11-28T18:18:14.725Z,12.38
2022-11-28T18:20:41.757Z,11.75
2022-11-28T18:23:11.069Z,12.02
2022-11-28T18:25:43.842Z,12.32
2022-11-28T18:28:17.268Z,11.93
2022-11-28T18:30:47.701Z,13.63
2022-11-28T18:33:15.717Z,12.48
2022-11-28T18:35:42.899Z,11.68
2022-11-28T18:38:12.162Z,12.70
2022-11-28T18:40:39.471Z,11.88
2022-11-28T18:43:06.570Z,12.60
2022-11-28T18:45:34.738Z,13.13
2022-11-28T18:48:02.106Z,12.63
2022-11-28T18:50:29.703Z,12.43
2022-11-28T18:52:57.029Z,12.77
2022-11-28T18:55:23.985Z,12.45
2022-11-28T18:57:50.866Z,12.65
2022-11-28T19:00:18.256Z,13.07
2022-11-28T19:02:45.161Z,13.15
2022-11-28T19:05:12.667Z,12.85
2022-11-28T19:07:39.743Z,11.52
2022-11-28T19:10:08.550Z,12.15
2022-11-28T19:12:35.503Z,12.18
2022-11-28T19:15:03.258Z,11.50
2022-11-28T19:17:30.130Z,12.90
2022-11-28T19:19:57.127Z,12.70
2022-11-28T19:22:24.050Z,12.63
2022-11-28T19:24:50.822Z,13.73
2022-11-28T19:27:17.810Z,12.75
2022-11-28T19:29:45.012Z,12.32
2022-11-28T19:32:13.509Z,13.52
2022-11-28T19:34:40.317Z,12.10
2022-11-28T19:37:07.256Z,11.55
2022-11-28T19:39:34.068Z,11.88
2022-11-28T19:42:01.059Z,11.25
2022-11-28T19:44:29.159Z,11.32
2022-11-28T19:46:56.458Z,11.82
2022-11-28T19:49:24.734Z,11.52
2022-11-28T19:51:52.363Z,13.77
2022-11-28T19:54:20.924Z,12.63
2022-11-28T19:56:49.055Z,12.02
2022-11-28T19:59:16.767Z,12.57
2022-11-28T20:01:44.080Z,11.80
2022-11-28T20:04:11.326Z,12.27
2022-11-28T20:06:38.601Z,11.35
2022-11-28T20:09:08.744Z,12.95
2022-11-28T20:11:39.911Z,12.80
2022-11-28T20:14:11.887Z,12.70
2022-11-28T20:16:40.341Z,12.98
2022-11-28T20:19:11.005Z,13.30
2022-11-28T20:21:38.334Z,12.48
2022-11-28T20:24:07.572Z,11.95
2022-11-28T20:26:41.355Z,12.68
2022-11-28T20:29:12.090Z,13.18
2022-11-28T20:31:45.640Z,13.35
2022-11-28T20:34:16.425Z,14.07
2022-11-28T20:36:44.088Z,13.60
2022-11-28T20:39:12.504Z,14.13
2022-11-28T20:41:39.695Z,14.02
2022-11-28T20:44:06.585Z,12.63
2022-11-28T20:46:35.794Z,11.85
2022-11-28T20:49:05.419Z,10.88
2022-11-28T20:51:33.919Z,12.30
2022-11-28T20:54:01.008Z,11.75
2022-11-28T20:56:30.745Z,11.35
2022-11-28T20:59:00.823Z,11.90
2022-11-28T21:01:36.103Z,11.70
2022-11-28T21:04:04.972Z,10.63
2022-11-28T21:06:31.890Z,11.95
2022-11-28T21:08:58.968Z,10.73
2022-11-28T21:11:57.388Z,10.40
2022-11-28T21:14:18.880Z,11.63
2022-11-28T21:16:45.906Z,12.10
2022-11-28T21:19:12.795Z,12.75
2022-11-28T21:21:40.273Z,13.15
2022-11-28T21:24:10.646Z,12.38
2022-11-28T21:26:41.717Z,11.20
2022-11-28T21:29:12.158Z,9.35
2022-11-28T21:31:42.229Z,9.13
2022-11-28T21:34:14.127Z,8.48
2022-11-28T21:36:41.306Z,8.30
2022-11-28T21:39:11.558Z,9.13
2022-11-28T21:41:38.449Z,8.80
2022-11-28T21:44:05.436Z,8.30
2022-11-28T21:46:33.003Z,9.50
2022-11-28T21:49:00.434Z,9.85
2022-11-28T21:51:30.656Z,9.80
2022-11-28T21:53:58.198Z,8.93
2022-11-28T21:56:25.566Z,9.52
2022-11-28T21:58:53.956Z,10.73
2022-11-28T22:01:21.604Z,10.10
2022-11-28T22:03:49.079Z,10.10
2022-11-28T22:06:25.649Z,10.77
2022-11-28T22:08:54.546Z,10.55
2022-11-28T22:11:22.895Z,10.35
2022-11-28T22:13:50.859Z,9.98
2022-11-28T22:16:23.597Z,10.15
2022-11-28T22:18:51.989Z,9.15
2022-11-28T22:21:50.572Z,10.23
2022-11-28T22:24:08.211Z,10.18
2022-11-28T22:26:35.308Z,8.77
2022-11-28T22:29:04.164Z,9.05
2022-11-28T22:31:32.083Z,8.80
2022-11-28T22:33:59.167Z,8.43
2022-11-28T22:36:26.063Z,9.13
2022-11-28T22:38:58.079Z,9.23
2022-11-28T22:41:29.178Z,8.15
2022-11-28T22:44:00.692Z,7.97
2022-11-28T22:46:28.955Z,8.65
2022-11-28T22:49:03.072Z,9.43
2022-11-28T22:51:31.371Z,9.63
2022-11-28T22:54:01.994Z,7.90
2022-11-28T22:56:31.441Z,7.82
2022-11-28T22:58:58.831Z,6.72
2022-11-28T23:01:29.655Z,6.80
2022-11-28T23:03:57.557Z,6.10
2022-11-28T23:06:27.076Z,5.55
2022-11-28T23:08:56.458Z,5.38
2022-11-28T23:11:27.812Z,5.65
2022-11-28T23:13:55.163Z,7.20
2022-11-28T23:16:31.267Z,7.00
2022-11-28T23:19:02.279Z,6.45
2022-11-28T23:21:35.535Z,7.88
2022-11-28T23:24:04.536Z,6.20
2022-11-28T23:26:32.803Z,5.40
2022-11-28T23:29:04.393Z,5.18
2022-11-28T23:31:33.664Z,4.38
2022-11-28T23:34:01.534Z,4.72
2022-11-28T23:36:33.660Z,4.95
2022-11-28T23:39:17.839Z,4.78
2022-11-28T23:41:45.423Z,5.13
2022-11-28T23:44:13.457Z,4.57
2022-11-28T23:46:41.000Z,4.25
2022-11-28T23:49:08.142Z,4.43
2022-11-28T23:51:35.730Z,4.00
2022-11-28T23:54:02.548Z,2.78
2022-11-28T23:56:32.659Z,2.88
2022-11-28T23:59:01.896Z,3.35
